Saturday, November 17, 2018, 7:32 AM GMT
Back to Local

CWQP, Point Petre , Ont.

Location: , , Canada Lat: 43.833
Local Time: 7:32 AM GMT ( 7:32 GMT) Lon: -77.15
Time Zone: GMT Elev: 259 ft

Show me the last for .
Show Coded

Time T Td Feel RH Dir Speed Gust Alt SLP Vis Weather Sky Remarks
2018-11-17 07:00 42 35 29 75 270° 29 40 - 29.90 0 Peak wind: 40 mph (35 kts) from 250° at 51 min
2018-11-17 06:00 41 36 29 82 270° 24 37 - 29.88 0 Peak wind: 41 mph (36 kts) from 280° at 41 min
2018-11-17 05:00 41 36 29 82 270° 26 37 - 29.86 0 Peak wind: 39 mph (34 kts) from 280° at 28 min
2018-11-17 04:00 41 36 29 82 270° 26 37 - 29.84 0 Peak wind: 40 mph (35 kts) from 280° at 06 min
2018-11-17 03:00 40 35 27 81 270° 30 39 - 29.83 0 Peak wind: 41 mph (36 kts) from 290° at 00 min
2018-11-17 02:00 38 35 24 88 270° 26 43 - 29.80 0 Peak wind: 42 mph (37 kts) from 270° at 00 min
2018-11-17 01:00 40 34 26 80 260° 25 41 - 29.79 0 Peak wind: 41 mph (36 kts) from 270° at 47 min
2018-11-17 00:00 39 34 25 81 270° 26 44 - 29.77 0 Peak wind: 43 mph (38 kts) from 270° at 33 min
2018-11-16 23:00 39 34 26 82 270° 26 39 - 29.74 0 Peak wind: 41 mph (36 kts) from 270° at 22 min
1-hr Precip Total: 0.01"
2018-11-16 22:00 39 35 26 86 270° 25 38 - 29.72 0 Peak wind: 41 mph (36 kts) from 260° at 04 min
2018-11-16 21:00 39 35 25 86 270° 30 44 - 29.70 0 Peak wind: 43 mph (38 kts) from 270° at 50 min
1-hr Precip Total: 0.01"
2018-11-16 20:00 39 36 25 88 270° 29 39 - 29.68 0 Peak wind: 39 mph (34 kts) from 270° at 48 min
1-hr Precip Total: 0.03"
2018-11-16 19:00 37 35 23 95 270° 26 37 - 29.67 0 Peak wind: 36 mph (32 kts) from 260° at 41 min
1-hr Precip Total: 0.01"
2018-11-16 18:00 38 35 24 87 280° 29 36 - 29.66 0 Peak wind: 37 mph (33 kts) from 290° at 41 min
1-hr Precip Total: 0.03"
2018-11-16 17:00 36 35 28 94 240° 13 - - 29.66 0 1-hr Precip Total: 0.03"
2018-11-16 16:00 36 34 29 93 210° 9 - - 29.69 0 None
2018-11-16 15:00 35 32 28 87 200° 9 - - 29.70 0 None
2018-11-16 14:00 34 33 26 94 170° 12 - - 29.71 0 1-hr Precip Total: 0.01"
2018-11-16 13:00 34 31 25 88 150° 15 - - 29.73 0 1-hr Precip Total: 0.01"
2018-11-16 12:00 35 33 23 93 130° 16 22 - 29.73 0 Peak wind: 21 mph (19 kts) from 100° at 22 min
1-hr Precip Total: 0.01"
2018-11-16 11:00 34 32 22 91 100° 15 25 - 29.75 0 Peak wind: 27 mph (24 kts) from 110° at 06 min
1-hr Precip Total: 0.01"
2018-11-16 10:00 35 33 24 93 100° 18 - - 29.78 0 Peak wind: 24 mph (21 kts) from 120° at 03 min
1-hr Precip Total: 0.01"
2018-11-16 09:00 35 33 23 94 100° 16 23 - 29.81 0 Peak wind: 28 mph (25 kts) from 110° at 13 min
1-hr Precip Total: 0.04"
2018-11-16 08:00 34 32 22 92 100° 23 - - 29.84 0 Peak wind: 27 mph (24 kts) from 100° at 46 min
1-hr Precip Total: 0.04"

Support USWX by starting your Amazon purchase here.